Hauptseite
METAR-TAF:

METAR-TAF

Flughäfen :

Flughafen Gran Canaria

Gran Canaria, Spanien

Breite: 27-56N, Länge: 015-23W, Höhe: 23 m

Beobachtung

Neuester Wetterbericht von vor 44 Minuten, um 21:00 UTC
Wind 24 kt aus Nord
Temperatur 22°C
Luftfeuchtigkeit 73%
Luftdruck 1017 hPa
Sichtweite 10 km oder mehr
Leicht bewölkt in der Höhe von 1800 ft

METAR: GCLP 202100Z 01024KT 9999 FEW018 22/17 Q1017 WS ALL RWY NOSIG

Zeit: 22:44 (21:44 UTC)

Prognose

Neuester Wetterbericht von vor 1 Stunde und 44 Minuten, um 20:00 UTC
Gültige Prognose vom 20 um 21 UTC bis 21 um 21 UTC
Wind 25 kt aus Nord
Sichtweite 10 km oder mehr
Leicht bewölkt in der Höhe von 2000 ft
Zeitweise
vom 20 um 21 UTC bis 21 um 21 UTC
Wind 26 kt aus Nord, Böen bis zu 36 kt

TAF: GCLP 202000Z 2021/2121 36025KT 9999 FEW020 TX27/2114Z TN20/2105Z TEMPO 2021/2121 36026G36KT

Wetterbeobachtungen und Prognosen von mehr als 4000 Flughäfen (METAR und TAF Bericht).

Die verfügbaren Stationen werden durch gelbe und rote Markierungen auf der Karte dargestellt.

Führen Sie die Maus auf sie, um den Namen der Station zu sehen.

Darauf klicken, um die Beobachtung von Wetterbeobachtungen und Prognosen zu sehen.

Um die Karte zu ändern : klicken Sie auf den grünen Tasten mit einem schwarzen Kreuz Zum Vergrößern, auf den grünen Button mit einem Gedankenstrich zu verkleinern, oder auf die grünen Pfeile für benachbarte Karten.


METAR-TAF: